82FD weather

Atc Heliport
Jupiter, Florida, United States

Public forecast

Using degrees Fahrenheit for public forecast. Weather courtesy of forecast.io.

Closest aviation weather report (METAR) to Atc Heliport

Closest report is Witham Field, 13.5 nm (24.9 km) NNW. Retrieved 2020/06/06 21:50 UTC (56 minutes ago):

KSUA 062150Z 14011KT 7SM BKN021 OVC040 29/25 A2997

Closest aviation forecast (TAF) to Atc Heliport

Closest forecast is Witham Field, 13.5 nm (24.9 km) NNW. Retrieved 2020/06/06 18:46 UTC (4 hours ago):

TAF KSUA 061744Z 0618/0718 13011KT P6SM VCTS SCT030CB BKN050 OVC100 FM070100 12007KT P6SM VCSH FEW020 SCT040 OVC120 FM070400 15012KT P6SM VCSH SCT040 OVC120